createdAt,value
2019-05-02T00:02:13.031Z,35.33
2019-05-02T00:04:43.305Z,34.90
2019-05-02T00:07:14.365Z,38.33
2019-05-02T00:09:48.844Z,37.03
2019-05-02T00:12:18.393Z,38.43
2019-05-02T00:14:48.705Z,36.23
2019-05-02T00:17:20.225Z,35.33
2019-05-02T00:19:51.418Z,36.97
2019-05-02T00:22:21.476Z,37.60
2019-05-02T00:24:51.547Z,43.13
2019-05-02T00:27:21.974Z,42.87
2019-05-02T00:29:53.746Z,35.43
2019-05-02T00:32:24.491Z,41.37
2019-05-02T00:34:54.547Z,37.87
2019-05-02T00:37:26.643Z,37.80
2019-05-02T00:39:56.342Z,40.87
2019-05-02T00:42:26.344Z,41.47
2019-05-02T00:44:56.346Z,45.13
2019-05-02T00:47:47.859Z,40.27
2019-05-02T00:50:17.783Z,38.10
2019-05-02T00:52:47.777Z,41.27
2019-05-02T00:55:17.766Z,46.73
2019-05-02T00:57:50.843Z,43.47
2019-05-02T01:00:20.221Z,39.00
2019-05-02T01:02:57.501Z,44.97
2019-05-02T01:05:28.909Z,42.17
2019-05-02T01:08:01.212Z,45.90
2019-05-02T01:10:30.569Z,42.23
2019-05-02T01:13:00.918Z,42.27
2019-05-02T01:15:30.928Z,45.00
2019-05-02T01:18:01.302Z,43.53
2019-05-02T01:20:32.510Z,43.90
2019-05-02T01:23:02.505Z,45.80
2019-05-02T01:25:32.890Z,42.87
2019-05-02T01:28:20.412Z,41.30
2019-05-02T01:31:08.121Z,43.57
2019-05-02T01:33:55.783Z,43.17
2019-05-02T01:36:48.986Z,43.63
2019-05-02T01:39:18.970Z,43.63
2019-05-02T01:41:48.962Z,45.27
2019-05-02T01:44:19.015Z,43.53
2019-05-02T01:46:49.139Z,43.27
2019-05-02T01:49:21.878Z,44.53
2019-05-02T01:51:50.708Z,48.43
2019-05-02T01:54:20.707Z,46.93
2019-05-02T01:56:50.701Z,40.57
2019-05-02T01:59:20.838Z,46.10
2019-05-02T02:01:53.210Z,44.73
2019-05-02T02:04:22.438Z,43.10
2019-05-02T02:06:52.399Z,41.60
2019-05-02T02:09:22.835Z,43.37
2019-05-02T02:11:52.837Z,40.17
2019-05-02T02:14:22.884Z,40.90
2019-05-02T02:16:52.962Z,43.70
2019-05-02T02:19:39.100Z,45.13
2019-05-02T02:22:24.481Z,45.93
2019-05-02T02:25:12.265Z,41.53
2019-05-02T02:27:42.322Z,42.63
2019-05-02T02:30:17.663Z,44.37
2019-05-02T02:32:44.274Z,41.03
2019-05-02T02:35:14.445Z,48.17
2019-05-02T02:37:52.392Z,42.80
2019-05-02T02:40:16.192Z,43.40
2019-05-02T02:42:46.209Z,44.30
2019-05-02T02:45:39.967Z,45.50
2019-05-02T02:48:10.003Z,44.03
2019-05-02T02:50:43.109Z,44.90
2019-05-02T02:53:18.224Z,42.97
2019-05-02T02:55:43.382Z,41.93
2019-05-02T02:58:13.566Z,45.37
2019-05-02T03:00:47.572Z,47.07
2019-05-02T03:03:20.685Z,39.80
2019-05-02T03:05:47.419Z,47.03
2019-05-02T03:08:17.498Z,46.40
2019-05-02T03:10:47.466Z,46.07
2019-05-02T03:13:51.545Z,45.27
2019-05-02T03:16:09.714Z,47.60
2019-05-02T03:18:42.865Z,49.33
2019-05-02T03:21:13.259Z,50.13
2019-05-02T03:23:44.495Z,49.13
2019-05-02T03:26:15.633Z,46.93
2019-05-02T03:28:57.703Z,45.13
2019-05-02T03:31:30.651Z,46.40
2019-05-02T03:33:56.797Z,52.60
2019-05-02T03:36:34.941Z,53.80
2019-05-02T03:38:53.297Z,53.27
2019-05-02T03:41:23.755Z,55.50
2019-05-02T03:44:09.854Z,61.80
2019-05-02T03:46:25.560Z,62.07
2019-05-02T03:49:06.250Z,58.10
2019-05-02T03:51:27.490Z,59.27
2019-05-02T03:54:05.714Z,54.90
2019-05-02T03:56:29.646Z,58.70
2019-05-02T03:58:59.799Z,54.30
2019-05-02T04:01:34.540Z,60.40
2019-05-02T04:04:04.252Z,61.20
2019-05-02T04:06:34.609Z,57.53
2019-05-02T04:09:06.938Z,52.97
2019-05-02T04:11:38.927Z,55.17
2019-05-02T04:14:15.931Z,49.97
2019-05-02T04:16:41.394Z,53.83
2019-05-02T04:19:13.085Z,59.77
2019-05-02T04:21:43.796Z,58.17
2019-05-02T04:24:16.031Z,54.63
2019-05-02T04:26:53.441Z,49.23
2019-05-02T04:29:17.549Z,57.93
2019-05-02T04:31:47.519Z,54.60
2019-05-02T04:34:17.910Z,54.00
2019-05-02T04:36:59.788Z,58.23
2019-05-02T04:39:21.634Z,52.57
2019-05-02T04:41:52.058Z,50.47
2019-05-02T04:44:22.118Z,53.40
2019-05-02T04:46:59.740Z,48.13
2019-05-02T04:49:32.686Z,55.27
2019-05-02T04:52:03.134Z,50.90
2019-05-02T04:54:32.024Z,58.80
2019-05-02T04:57:02.494Z,55.10
2019-05-02T04:59:33.314Z,50.63
2019-05-02T05:02:03.097Z,54.40
2019-05-02T05:04:42.032Z,55.10
2019-05-02T05:07:05.106Z,51.20
2019-05-02T05:09:35.160Z,58.50
2019-05-02T05:12:07.045Z,50.27
2019-05-02T05:14:39.427Z,54.70
2019-05-02T05:17:08.493Z,50.83
2019-05-02T05:19:38.377Z,52.43
2019-05-02T05:22:11.598Z,59.90
2019-05-02T05:24:50.112Z,54.40
2019-05-02T05:27:22.761Z,57.90
2019-05-02T05:29:53.714Z,52.13
2019-05-02T05:32:23.688Z,54.97
2019-05-02T05:34:53.764Z,55.47
2019-05-02T05:37:23.746Z,56.93
2019-05-02T05:39:53.555Z,49.00
2019-05-02T05:42:30.084Z,53.73
2019-05-02T05:44:55.135Z,46.70
2019-05-02T05:47:25.117Z,56.97
2019-05-02T05:49:57.549Z,55.87
2019-05-02T05:52:27.210Z,54.63
2019-05-02T05:54:57.931Z,49.70
2019-05-02T05:57:28.082Z,53.53
2019-05-02T05:59:58.542Z,53.80
2019-05-02T06:02:28.637Z,54.17
2019-05-02T06:05:02.551Z,49.17
2019-05-02T06:07:33.679Z,46.03
2019-05-02T06:10:07.967Z,47.50
2019-05-02T06:12:35.540Z,53.27
2019-05-02T06:15:06.405Z,44.30
2019-05-02T06:17:36.367Z,49.00
2019-05-02T06:20:06.645Z,50.97
2019-05-02T06:22:36.942Z,50.70
2019-05-02T06:25:09.747Z,48.50
2019-05-02T06:27:39.972Z,55.00
2019-05-02T06:30:11.377Z,49.90
2019-05-02T06:32:41.642Z,50.93
2019-05-02T06:35:11.721Z,46.70
2019-05-02T06:37:45.238Z,49.13
2019-05-02T06:40:13.689Z,50.00
2019-05-02T06:42:43.680Z,50.27
2019-05-02T06:45:13.850Z,53.53
2019-05-02T06:47:44.210Z,49.70
2019-05-02T06:50:14.502Z,52.63
2019-05-02T06:52:44.562Z,47.53
2019-05-02T06:55:14.644Z,44.53
2019-05-02T06:57:45.002Z,47.67
2019-05-02T07:00:15.843Z,50.83
2019-05-02T07:02:45.872Z,51.43
2019-05-02T07:05:16.281Z,48.03
2019-05-02T07:07:46.333Z,53.07
2019-05-02T07:10:20.053Z,40.00
2019-05-02T07:12:51.102Z,37.30
2019-05-02T07:15:40.355Z,50.37
2019-05-02T07:18:13.189Z,50.10
2019-05-02T07:20:43.182Z,48.23
2019-05-02T07:23:16.147Z,42.70
2019-05-02T07:25:45.272Z,49.70
2019-05-02T07:28:15.372Z,49.73
2019-05-02T07:30:45.355Z,29.23
2019-05-02T07:33:15.296Z,48.97
2019-05-02T07:35:45.208Z,50.97
2019-05-02T07:38:15.182Z,57.57
2019-05-02T07:40:48.176Z,55.30
2019-05-02T07:43:21.009Z,53.97
2019-05-02T07:45:49.012Z,56.67
2019-05-02T07:48:19.137Z,52.47
2019-05-02T07:50:49.244Z,46.53
2019-05-02T07:53:19.210Z,48.40
2019-05-02T07:55:50.260Z,50.27
2019-05-02T07:58:20.237Z,53.07
2019-05-02T08:00:50.202Z,58.47
2019-05-02T08:03:20.186Z,50.90
2019-05-02T08:05:54.394Z,47.30
2019-05-02T08:08:24.992Z,44.27
2019-05-02T08:11:01.557Z,54.53
2019-05-02T08:13:25.093Z,52.93
2019-05-02T08:15:55.146Z,58.90
2019-05-02T08:18:30.266Z,52.57
2019-05-02T08:20:58.183Z,53.50
2019-05-02T08:23:28.512Z,53.73
2019-05-02T08:25:59.445Z,58.97
2019-05-02T08:28:38.717Z,52.93
2019-05-02T08:31:08.674Z,53.27
2019-05-02T08:33:38.667Z,57.67
2019-05-02T08:36:08.544Z,50.73
2019-05-02T08:38:38.604Z,47.87
2019-05-02T08:41:08.575Z,50.43
2019-05-02T08:43:40.136Z,49.50
2019-05-02T08:46:14.484Z,45.00
2019-05-02T08:48:43.707Z,47.17
2019-05-02T08:51:13.611Z,51.83
2019-05-02T08:53:43.622Z,44.83
2019-05-02T08:56:16.061Z,45.13
2019-05-02T08:58:49.970Z,47.50
2019-05-02T09:01:17.391Z,50.27
2019-05-02T09:03:55.474Z,51.47
2019-05-02T09:06:22.864Z,47.87
2019-05-02T09:08:51.265Z,47.23
2019-05-02T09:11:22.784Z,43.13
2019-05-02T09:13:53.186Z,46.53
2019-05-02T09:16:28.624Z,52.67
2019-05-02T09:18:54.908Z,49.17
2019-05-02T09:21:26.722Z,42.03
2019-05-02T09:23:56.660Z,48.03
2019-05-02T09:26:36.085Z,38.43
2019-05-02T09:29:01.636Z,50.33
2019-05-02T09:31:32.125Z,49.67
2019-05-02T09:34:02.822Z,44.80
2019-05-02T09:36:33.016Z,41.97
2019-05-02T09:39:04.284Z,48.53
2019-05-02T09:41:36.239Z,47.77
2019-05-02T09:44:08.966Z,48.43
2019-05-02T09:46:38.498Z,40.83
2019-05-02T09:49:13.402Z,49.57
2019-05-02T09:51:41.924Z,47.13
2019-05-02T09:54:12.090Z,48.93
2019-05-02T09:56:43.109Z,47.40
2019-05-02T09:59:26.232Z,48.57
2019-05-02T10:01:45.006Z,48.83
2019-05-02T10:04:15.069Z,52.20
2019-05-02T10:06:45.201Z,44.60
2019-05-02T10:09:18.669Z,41.50
2019-05-02T10:11:47.253Z,45.17
2019-05-02T10:14:17.236Z,45.10
2019-05-02T10:16:47.859Z,45.43
2019-05-02T10:19:17.862Z,47.37
2019-05-02T10:21:54.277Z,46.13
2019-05-02T10:24:19.577Z,50.30
2019-05-02T10:26:49.552Z,48.10
2019-05-02T10:29:22.843Z,44.77
2019-05-02T10:31:52.649Z,48.07
2019-05-02T10:34:23.236Z,50.85
2019-05-02T10:36:58.538Z,51.80
2019-05-02T10:39:28.527Z,44.13
2019-05-02T10:41:57.628Z,44.53
2019-05-02T10:44:32.604Z,41.87
2019-05-02T10:47:00.219Z,44.33
2019-05-02T10:49:58.952Z,41.18
2019-05-02T10:52:29.994Z,47.70
2019-05-02T10:55:02.680Z,39.42
2019-05-02T10:57:32.711Z,41.33
2019-05-02T11:00:03.380Z,46.55
2019-05-02T11:02:52.568Z,40.50
2019-05-02T11:05:26.463Z,50.12
2019-05-02T11:07:56.906Z,49.42
2019-05-02T11:10:27.926Z,36.90
2019-05-02T11:13:04.772Z,43.10
2019-05-02T11:15:52.601Z,47.48
2019-05-02T11:18:39.576Z,42.93
2019-05-02T11:20:59.144Z,35.63
2019-05-02T11:23:32.678Z,41.85
2019-05-02T11:26:02.125Z,30.90
2019-05-02T11:28:32.451Z,37.60
2019-05-02T11:31:06.853Z,38.25
2019-05-02T11:33:34.516Z,39.80
2019-05-02T11:36:04.555Z,36.83
2019-05-02T11:38:35.871Z,36.93
2019-05-02T11:41:06.177Z,36.85
2019-05-02T11:43:37.069Z,39.05
2019-05-02T11:46:07.895Z,33.80
2019-05-02T11:48:37.802Z,34.08
2019-05-02T11:51:12.757Z,37.55
2019-05-02T11:53:39.521Z,36.17
2019-05-02T11:56:11.618Z,28.90
2019-05-02T11:58:48.238Z,31.80
2019-05-02T12:01:12.911Z,27.93
2019-05-02T12:03:46.355Z,30.40
2019-05-02T12:06:19.674Z,31.37
2019-05-02T12:08:49.524Z,29.63
2019-05-02T12:11:19.979Z,32.83
2019-05-02T12:13:52.842Z,28.02
2019-05-02T12:16:22.852Z,31.45
2019-05-02T12:18:53.739Z,29.70
2019-05-02T12:21:24.877Z,28.12
2019-05-02T12:23:54.908Z,26.97
2019-05-02T12:26:24.933Z,29.85
2019-05-02T12:28:55.013Z,32.23
2019-05-02T12:31:32.150Z,27.27
2019-05-02T12:34:04.017Z,32.13
2019-05-02T12:36:34.241Z,33.00
2019-05-02T12:39:05.685Z,30.60
2019-05-02T12:41:36.156Z,28.47
2019-05-02T12:44:06.287Z,28.55
2019-05-02T12:46:36.367Z,27.93
2019-05-02T12:49:06.350Z,30.75
2019-05-02T12:51:36.418Z,29.95
2019-05-02T12:54:06.398Z,29.75
2019-05-02T12:56:36.390Z,34.08
2019-05-02T12:59:06.514Z,30.72
2019-05-02T13:01:36.650Z,31.10
2019-05-02T13:04:15.813Z,27.42
2019-05-02T13:06:46.210Z,35.23
2019-05-02T13:09:16.245Z,26.50
2019-05-02T13:11:58.866Z,29.60
2019-05-02T13:14:31.989Z,29.70
2019-05-02T13:17:05.589Z,32.15
2019-05-02T13:19:40.038Z,33.30
2019-05-02T13:22:16.511Z,31.55
2019-05-02T13:24:54.142Z,26.40
2019-05-02T13:27:22.844Z,30.52
2019-05-02T13:29:53.442Z,29.45
2019-05-02T13:32:33.778Z,31.77
2019-05-02T13:35:34.348Z,31.45
2019-05-02T13:38:06.563Z,35.03
2019-05-02T13:40:48.262Z,35.43
2019-05-02T13:43:18.846Z,33.88
2019-05-02T13:46:12.590Z,34.38
2019-05-02T13:48:44.085Z,33.03
2019-05-02T13:51:14.059Z,29.82
2019-05-02T13:53:55.419Z,29.72
2019-05-02T13:56:47.788Z,28.62
2019-05-02T13:59:19.143Z,32.73
2019-05-02T14:01:52.137Z,31.60
2019-05-02T14:04:24.026Z,33.08
2019-05-02T14:06:54.494Z,31.42
2019-05-02T14:09:44.028Z,30.43
2019-05-02T14:12:28.529Z,29.05
2019-05-02T14:14:58.817Z,29.60
2019-05-02T14:17:29.056Z,31.70
2019-05-02T14:20:10.014Z,33.73
2019-05-02T14:22:32.407Z,31.33
2019-05-02T14:25:02.566Z,30.02
2019-05-02T14:27:32.615Z,30.55
2019-05-02T14:30:02.716Z,27.60
2019-05-02T14:32:34.374Z,33.93
2019-05-02T14:35:14.085Z,43.87
2019-05-02T14:37:44.087Z,53.67
2019-05-02T14:40:29.575Z,59.50
2019-05-02T14:43:03.468Z,58.98
2019-05-02T14:45:33.879Z,61.40
2019-05-02T14:48:18.030Z,64.05
2019-05-02T14:50:36.583Z,66.03
2019-05-02T14:53:06.590Z,65.77
2019-05-02T14:55:39.135Z,72.00
2019-05-02T14:58:09.032Z,65.30
2019-05-02T15:00:45.817Z,73.30
2019-05-02T15:03:13.554Z,69.67
2019-05-02T15:05:43.858Z,66.00
2019-05-02T15:08:13.805Z,68.00
2019-05-02T15:10:52.512Z,66.13
2019-05-02T15:13:15.858Z,65.60
2019-05-02T15:15:45.835Z,69.23
2019-05-02T15:18:17.511Z,68.33
2019-05-02T15:20:47.783Z,67.67
2019-05-02T15:23:19.843Z,75.83
2019-05-02T15:25:52.607Z,73.57
2019-05-02T15:28:22.857Z,71.13
2019-05-02T15:31:05.436Z,74.13
2019-05-02T15:33:42.108Z,77.23
2019-05-02T15:36:12.575Z,78.57
2019-05-02T15:38:47.239Z,89.53
2019-05-02T15:41:15.583Z,94.07
2019-05-02T15:43:49.167Z,86.67
2019-05-02T15:46:23.676Z,83.23
2019-05-02T15:48:49.708Z,89.63
2019-05-02T15:51:19.798Z,86.83
2019-05-02T15:54:04.823Z,85.73
2019-05-02T15:56:27.543Z,90.40
2019-05-02T15:58:58.066Z,88.53
2019-05-02T16:01:41.581Z,95.33
2019-05-02T16:04:12.821Z,93.17
2019-05-02T16:06:43.036Z,91.73
2019-05-02T16:09:13.681Z,87.93
2019-05-02T16:11:47.842Z,91.10
2019-05-02T16:14:15.813Z,80.80
2019-05-02T16:16:45.806Z,91.50
2019-05-02T16:19:24.866Z,79.67
2019-05-02T16:22:08.155Z,91.67
2019-05-02T16:24:38.901Z,96.30
2019-05-02T16:27:08.925Z,89.20
2019-05-02T16:29:38.990Z,92.90
2019-05-02T16:32:42.076Z,95.20
2019-05-02T16:35:17.273Z,87.40
2019-05-02T16:37:51.088Z,92.33
2019-05-02T16:40:22.091Z,92.10
2019-05-02T16:42:51.817Z,92.40
2019-05-02T16:45:22.546Z,103.10
2019-05-02T16:47:58.821Z,90.00
2019-05-02T16:50:27.615Z,99.70
2019-05-02T16:52:56.602Z,101.90
2019-05-02T16:55:26.866Z,95.50
2019-05-02T16:58:05.195Z,104.95
2019-05-02T17:00:29.371Z,95.43
2019-05-02T17:02:59.523Z,93.83
2019-05-02T17:05:29.586Z,97.13
2019-05-02T17:08:10.705Z,93.43
2019-05-02T17:11:03.608Z,96.03
2019-05-02T17:13:35.814Z,91.80
2019-05-02T17:16:13.124Z,93.57
2019-05-02T17:18:37.850Z,86.60
2019-05-02T17:21:08.119Z,94.42
2019-05-02T17:23:42.811Z,91.27
2019-05-02T17:26:09.871Z,89.27
2019-05-02T17:28:43.272Z,93.13
2019-05-02T17:31:19.277Z,96.63
2019-05-02T17:33:46.282Z,89.57
2019-05-02T17:36:15.720Z,90.93
2019-05-02T17:38:45.702Z,84.93
2019-05-02T17:41:16.188Z,87.93
2019-05-02T17:43:46.526Z,70.93
2019-05-02T17:46:18.303Z,81.45
2019-05-02T17:48:52.808Z,68.03
2019-05-02T17:51:35.791Z,63.30
2019-05-02T17:54:02.960Z,72.60
2019-05-02T17:56:33.102Z,73.27
2019-05-02T17:59:03.472Z,76.65
2019-05-02T18:01:37.378Z,65.37
2019-05-02T18:04:12.605Z,77.27
2019-05-02T18:06:39.164Z,70.10
2019-05-02T18:09:09.510Z,68.03
2019-05-02T18:11:42.302Z,67.75
2019-05-02T18:14:19.744Z,76.67
2019-05-02T18:16:47.201Z,77.00
2019-05-02T18:19:20.511Z,82.33
2019-05-02T18:21:47.692Z,68.03
2019-05-02T18:24:17.956Z,62.97
2019-05-02T18:26:48.004Z,64.23
2019-05-02T18:29:17.997Z,68.77
2019-05-02T18:31:48.325Z,68.97
2019-05-02T18:34:21.055Z,63.00
2019-05-02T18:36:49.951Z,68.50
2019-05-02T18:39:22.074Z,66.17
2019-05-02T18:41:52.059Z,61.83
2019-05-02T18:44:23.809Z,64.57
2019-05-02T18:46:53.807Z,61.30
2019-05-02T18:49:23.805Z,63.33
2019-05-02T18:51:57.253Z,59.50
2019-05-02T18:54:25.630Z,60.07
2019-05-02T18:56:55.626Z,65.00
2019-05-02T18:59:27.277Z,55.73
2019-05-02T19:01:59.562Z,61.90
2019-05-02T19:04:34.850Z,54.27
2019-05-02T19:07:02.690Z,52.07
2019-05-02T19:09:33.152Z,46.73
2019-05-02T19:12:05.749Z,48.53
2019-05-02T19:14:36.111Z,50.83
2019-05-02T19:17:07.487Z,54.73
2019-05-02T19:19:37.702Z,48.00
2019-05-02T19:22:13.214Z,48.93
2019-05-02T19:24:39.614Z,52.53
2019-05-02T19:27:12.861Z,54.10
2019-05-02T19:29:48.217Z,55.57
2019-05-02T19:32:17.125Z,53.33
2019-05-02T19:34:47.537Z,47.30
2019-05-02T19:37:17.554Z,52.47
2019-05-02T19:39:48.922Z,57.57
2019-05-02T19:42:22.518Z,47.87
2019-05-02T19:44:52.747Z,53.07
2019-05-02T19:47:23.328Z,52.07
2019-05-02T19:49:54.418Z,48.50
2019-05-02T19:52:28.571Z,55.80
2019-05-02T19:54:58.979Z,49.50
2019-05-02T19:57:29.187Z,49.00
2019-05-02T20:00:02.807Z,46.00
2019-05-02T20:02:32.805Z,50.47
2019-05-02T20:05:04.611Z,42.80
2019-05-02T20:07:34.647Z,46.40
2019-05-02T20:10:05.079Z,47.10
2019-05-02T20:12:35.468Z,43.50
2019-05-02T20:15:05.861Z,43.60
2019-05-02T20:17:36.145Z,43.43
2019-05-02T20:20:10.085Z,44.30
2019-05-02T20:22:41.708Z,45.37
2019-05-02T20:25:12.723Z,43.63
2019-05-02T20:27:42.732Z,43.93
2019-05-02T20:30:12.886Z,40.77
2019-05-02T20:32:42.898Z,42.30
2019-05-02T20:35:13.077Z,38.00
2019-05-02T20:37:44.295Z,41.17
2019-05-02T20:40:28.947Z,36.70
2019-05-02T20:42:58.977Z,34.43
2019-05-02T20:45:29.181Z,36.30
2019-05-02T20:47:59.168Z,30.33
2019-05-02T20:50:29.390Z,28.77
2019-05-02T20:52:59.637Z,34.80
2019-05-02T20:55:29.803Z,29.73
2019-05-02T20:58:02.025Z,29.27
2019-05-02T21:00:32.448Z,27.43
2019-05-02T21:03:02.810Z,28.07
2019-05-02T21:05:48.808Z,26.37
2019-05-02T21:08:39.048Z,24.60
2019-05-02T21:11:09.262Z,25.60
2019-05-02T21:13:39.425Z,28.43
2019-05-02T21:16:09.385Z,23.30
2019-05-02T21:18:39.360Z,21.83
2019-05-02T21:21:09.431Z,21.57
2019-05-02T21:23:44.708Z,18.60
2019-05-02T21:26:11.071Z,18.50
2019-05-02T21:28:42.829Z,17.00
2019-05-02T21:31:12.937Z,18.37
2019-05-02T21:33:42.983Z,18.83
2019-05-02T21:36:13.275Z,14.13
2019-05-02T21:38:43.290Z,20.60
2019-05-02T21:41:13.959Z,13.50
2019-05-02T21:43:43.857Z,13.33
2019-05-02T21:46:13.740Z,16.10
2019-05-02T21:48:43.714Z,15.33
2019-05-02T21:51:24.042Z,13.80
2019-05-02T21:54:12.177Z,12.97
2019-05-02T21:56:45.304Z,16.23
2019-05-02T21:59:15.354Z,10.90
2019-05-02T22:01:51.741Z,13.83
2019-05-02T22:04:22.432Z,12.03
2019-05-02T22:06:52.735Z,10.60
2019-05-02T22:09:23.259Z,10.47
2019-05-02T22:11:53.408Z,8.93
2019-05-02T22:14:23.391Z,9.47
2019-05-02T22:16:53.337Z,11.10
2019-05-02T22:19:24.316Z,13.77
2019-05-02T22:21:54.346Z,10.20
2019-05-02T22:24:24.613Z,11.47
2019-05-02T22:26:55.477Z,9.33
2019-05-02T22:29:25.441Z,9.43
2019-05-02T22:31:56.283Z,8.03
2019-05-02T22:34:26.246Z,8.20
2019-05-02T22:36:56.501Z,7.03
2019-05-02T22:39:37.706Z,7.87
2019-05-02T22:42:07.666Z,9.57
2019-05-02T22:44:37.718Z,8.97
2019-05-02T22:47:07.703Z,12.53
2019-05-02T22:49:37.950Z,8.43
2019-05-02T22:52:07.934Z,11.60
2019-05-02T22:54:37.901Z,11.23
2019-05-02T22:57:07.877Z,10.23
2019-05-02T22:59:37.857Z,9.23
2019-05-02T23:02:07.894Z,10.27
2019-05-02T23:04:37.853Z,11.00
2019-05-02T23:07:07.837Z,9.83
2019-05-02T23:09:37.881Z,10.57
2019-05-02T23:12:08.119Z,9.73
2019-05-02T23:14:38.125Z,10.98
2019-05-02T23:17:08.341Z,9.87
2019-05-02T23:19:38.334Z,11.13
2019-05-02T23:22:08.291Z,9.03
2019-05-02T23:24:52.026Z,12.40
2019-05-02T23:27:28.473Z,13.00
2019-05-02T23:29:58.476Z,11.10
2019-05-02T23:32:28.979Z,7.93
2019-05-02T23:34:58.942Z,11.43
2019-05-02T23:37:28.908Z,12.73
2019-05-02T23:39:58.843Z,10.83
2019-05-02T23:42:28.726Z,11.80
2019-05-02T23:44:58.729Z,9.93
2019-05-02T23:47:28.716Z,11.00
2019-05-02T23:49:58.698Z,13.93
2019-05-02T23:52:29.055Z,11.25
2019-05-02T23:54:59.028Z,11.90
2019-05-02T23:57:29.061Z,13.60
2019-05-02T23:59:59.047Z,10.40
